sensor_id;sensor_type;location;lat;lon;timestamp;temperature;humidity
51884;DHT22;37915;53.254;6.598;2023-05-15T08:59:35;14.10;99.90
51884;DHT22;37915;53.254;6.598;2023-05-15T09:02:01;15.50;99.90
51884;DHT22;37915;53.254;6.598;2023-05-15T09:04:27;15.60;99.90
51884;DHT22;37915;53.254;6.598;2023-05-15T09:06:53;15.80;99.90
51884;DHT22;37915;53.254;6.598;2023-05-15T09:09:20;15.80;99.90
51884;DHT22;37915;53.254;6.598;2023-05-15T09:11:48;15.90;99.90
51884;DHT22;37915;53.254;6.598;2023-05-15T09:14:15;16.00;99.90
51884;DHT22;37915;53.254;6.598;2023-05-15T09:16:40;16.10;99.90
51884;DHT22;37915;53.254;6.598;2023-05-15T09:19:06;16.20;99.90
51884;DHT22;37915;53.254;6.598;2023-05-15T09:21:33;16.30;99.90
51884;DHT22;37915;53.254;6.598;2023-05-15T09:24:16;16.30;99.90
51884;DHT22;37915;53.254;6.598;2023-05-15T09:26:43;16.50;99.90
51884;DHT22;37915;53.254;6.598;2023-05-15T09:29:10;16.50;99.90
51884;DHT22;37915;53.254;6.598;2023-05-15T09:31:36;16.60;99.90
51884;DHT22;37915;53.254;6.598;2023-05-15T09:34:02;16.60;99.90
51884;DHT22;37915;53.254;6.598;2023-05-15T09:36:30;16.70;99.90
51884;DHT22;37915;53.254;6.598;2023-05-15T09:38:58;16.90;99.90
51884;DHT22;37915;53.254;6.598;2023-05-15T09:41:25;16.90;99.90
51884;DHT22;37915;53.254;6.598;2023-05-15T09:43:52;16.90;99.90
51884;DHT22;37915;53.254;6.598;2023-05-15T09:46:18;17.10;99.90
51884;DHT22;37915;53.254;6.598;2023-05-15T09:48:44;17.20;99.90
51884;DHT22;37915;53.254;6.598;2023-05-15T09:51:18;17.30;99.90
51884;DHT22;37915;53.254;6.598;2023-05-15T09:53:53;17.50;99.90
51884;DHT22;37915;53.254;6.598;2023-05-15T09:56:19;17.50;99.90
51884;DHT22;37915;53.254;6.598;2023-05-15T09:58:58;17.60;99.90
51884;DHT22;37915;53.254;6.598;2023-05-15T10:01:24;17.60;99.90
51884;DHT22;37915;53.254;6.598;2023-05-15T10:04:01;17.50;99.90
51884;DHT22;37915;53.254;6.598;2023-05-15T10:06:47;17.60;99.90
51884;DHT22;37915;53.254;6.598;2023-05-15T10:09:14;17.70;99.90
51884;DHT22;37915;53.254;6.598;2023-05-15T10:11:41;17.80;99.90
51884;DHT22;37915;53.254;6.598;2023-05-15T10:14:17;17.80;99.90
51884;DHT22;37915;53.254;6.598;2023-05-15T10:16:44;17.80;99.90
51884;DHT22;37915;53.254;6.598;2023-05-15T10:19:11;17.70;99.90
51884;DHT22;37915;53.254;6.598;2023-05-15T10:21:39;17.70;99.90
51884;DHT22;37915;53.254;6.598;2023-05-15T10:24:06;17.90;99.90
51884;DHT22;37915;53.254;6.598;2023-05-15T10:26:40;17.90;99.90
51884;DHT22;37915;53.254;6.598;2023-05-15T10:29:11;18.00;99.90
51884;DHT22;37915;53.254;6.598;2023-05-15T10:31:41;18.00;99.90
51884;DHT22;37915;53.254;6.598;2023-05-15T10:34:08;18.00;99.90
51884;DHT22;37915;53.254;6.598;2023-05-15T10:36:36;18.00;99.90
51884;DHT22;37915;53.254;6.598;2023-05-15T10:39:05;18.00;99.90
51884;DHT22;37915;53.254;6.598;2023-05-15T10:41:34;18.10;99.90
51884;DHT22;37915;53.254;6.598;2023-05-15T10:44:00;17.90;99.90
51884;DHT22;37915;53.254;6.598;2023-05-15T10:46:32;17.80;99.90
51884;DHT22;37915;53.254;6.598;2023-05-15T10:48:58;17.70;99.90
51884;DHT22;37915;53.254;6.598;2023-05-15T10:51:30;17.60;99.90
51884;DHT22;37915;53.254;6.598;2023-05-15T10:53:58;17.50;99.90
51884;DHT22;37915;53.254;6.598;2023-05-15T10:56:32;17.40;99.90
51884;DHT22;37915;53.254;6.598;2023-05-15T10:59:05;17.20;99.90
51884;DHT22;37915;53.254;6.598;2023-05-15T11:01:33;17.10;99.90
51884;DHT22;37915;53.254;6.598;2023-05-15T11:04:16;17.10;99.90
51884;DHT22;37915;53.254;6.598;2023-05-15T11:06:44;17.10;99.90
51884;DHT22;37915;53.254;6.598;2023-05-15T11:09:34;17.10;99.90
51884;DHT22;37915;53.254;6.598;2023-05-15T11:14:28;17.10;99.90
51884;DHT22;37915;53.254;6.598;2023-05-15T11:50:19;16.80;99.90
51884;DHT22;37915;53.254;6.598;2023-05-15T11:52:47;16.50;99.90
51884;DHT22;37915;53.254;6.598;2023-05-15T11:55:15;16.50;99.90
51884;DHT22;37915;53.254;6.598;2023-05-15T11:57:40;16.50;99.90
51884;DHT22;37915;53.254;6.598;2023-05-15T12:00:07;16.50;99.90
51884;DHT22;37915;53.254;6.598;2023-05-15T12:02:34;16.60;99.90
51884;DHT22;37915;53.254;6.598;2023-05-15T12:05:00;16.60;99.90
51884;DHT22;37915;53.254;6.598;2023-05-15T12:07:25;16.60;99.90
51884;DHT22;37915;53.254;6.598;2023-05-15T12:09:51;16.70;99.90
51884;DHT22;37915;53.254;6.598;2023-05-15T12:12:17;16.80;99.90
51884;DHT22;37915;53.254;6.598;2023-05-15T12:14:42;16.80;99.90
51884;DHT22;37915;53.254;6.598;2023-05-15T12:17:08;16.80;99.90
51884;DHT22;37915;53.254;6.598;2023-05-15T12:19:34;16.70;99.90
51884;DHT22;37915;53.254;6.598;2023-05-15T12:22:04;16.70;99.90
51884;DHT22;37915;53.254;6.598;2023-05-15T12:24:31;16.60;99.90
51884;DHT22;37915;53.254;6.598;2023-05-15T12:26:56;16.60;99.90
51884;DHT22;37915;53.254;6.598;2023-05-15T12:29:22;16.60;99.90
51884;DHT22;37915;53.254;6.598;2023-05-15T12:31:49;16.60;99.90
51884;DHT22;37915;53.254;6.598;2023-05-15T12:34:19;16.50;99.90
51884;DHT22;37915;53.254;6.598;2023-05-15T12:36:45;16.40;99.90
51884;DHT22;37915;53.254;6.598;2023-05-15T12:39:11;16.40;99.90
51884;DHT22;37915;53.254;6.598;2023-05-15T12:41:37;16.40;99.90
51884;DHT22;37915;53.254;6.598;2023-05-15T15:32:58;16.50;99.90
51884;DHT22;37915;53.254;6.598;2023-05-15T15:35:24;13.60;99.90
51884;DHT22;37915;53.254;6.598;2023-05-15T15:37:50;13.40;99.90
51884;DHT22;37915;53.254;6.598;2023-05-15T15:40:17;13.40;99.90
51884;DHT22;37915;53.254;6.598;2023-05-15T15:42:43;13.30;99.90
51884;DHT22;37915;53.254;6.598;2023-05-15T15:45:09;13.30;99.90
51884;DHT22;37915;53.254;6.598;2023-05-15T15:47:34;13.20;99.90
51884;DHT22;37915;53.254;6.598;2023-05-15T15:50:00;13.10;99.90
51884;DHT22;37915;53.254;6.598;2023-05-15T15:52:26;13.00;99.90
51884;DHT22;37915;53.254;6.598;2023-05-15T15:54:52;12.90;99.90
51884;DHT22;37915;53.254;6.598;2023-05-15T15:57:19;12.90;99.90
51884;DHT22;37915;53.254;6.598;2023-05-15T15:59:45;12.80;99.90
51884;DHT22;37915;53.254;6.598;2023-05-15T16:02:12;12.80;99.90
51884;DHT22;37915;53.254;6.598;2023-05-15T16:04:38;12.80;99.90
51884;DHT22;37915;53.254;6.598;2023-05-15T16:07:05;12.80;99.90
51884;DHT22;37915;53.254;6.598;2023-05-15T16:09:31;12.80;99.90
51884;DHT22;37915;53.254;6.598;2023-05-15T16:11:57;12.80;99.90
51884;DHT22;37915;53.254;6.598;2023-05-15T16:14:23;12.80;99.90
51884;DHT22;37915;53.254;6.598;2023-05-15T16:16:51;12.80;99.90
51884;DHT22;37915;53.254;6.598;2023-05-15T16:19:17;12.70;99.90
51884;DHT22;37915;53.254;6.598;2023-05-15T16:21:42;12.70;99.90
51884;DHT22;37915;53.254;6.598;2023-05-15T16:24:08;12.70;99.90
51884;DHT22;37915;53.254;6.598;2023-05-15T16:26:35;12.60;99.90
51884;DHT22;37915;53.254;6.598;2023-05-15T16:29:01;12.60;99.90
51884;DHT22;37915;53.254;6.598;2023-05-15T16:31:27;12.50;99.90
51884;DHT22;37915;53.254;6.598;2023-05-15T16:33:53;12.50;99.90
51884;DHT22;37915;53.254;6.598;2023-05-15T16:36:18;12.40;99.90
51884;DHT22;37915;53.254;6.598;2023-05-15T16:38:44;12.40;99.90
51884;DHT22;37915;53.254;6.598;2023-05-15T16:41:10;12.30;99.90
51884;DHT22;37915;53.254;6.598;2023-05-15T16:43:35;12.30;99.90
51884;DHT22;37915;53.254;6.598;2023-05-15T16:46:03;12.20;99.90
51884;DHT22;37915;53.254;6.598;2023-05-15T16:48:29;12.10;99.90
51884;DHT22;37915;53.254;6.598;2023-05-15T16:50:55;12.10;99.90
51884;DHT22;37915;53.254;6.598;2023-05-15T16:53:20;12.00;99.90
51884;DHT22;37915;53.254;6.598;2023-05-15T16:55:47;11.90;99.90
51884;DHT22;37915;53.254;6.598;2023-05-15T16:58:13;11.90;99.90
51884;DHT22;37915;53.254;6.598;2023-05-15T17:00:39;11.90;99.90
51884;DHT22;37915;53.254;6.598;2023-05-15T17:03:05;11.90;99.90
51884;DHT22;37915;53.254;6.598;2023-05-15T17:05:32;11.90;99.90
51884;DHT22;37915;53.254;6.598;2023-05-15T17:07:58;11.90;99.90
51884;DHT22;37915;53.254;6.598;2023-05-15T17:10:24;11.90;99.90
51884;DHT22;37915;53.254;6.598;2023-05-15T17:12:50;11.90;99.90
51884;DHT22;37915;53.254;6.598;2023-05-15T17:15:15;11.90;99.90
51884;DHT22;37915;53.254;6.598;2023-05-15T17:17:41;11.80;99.90
51884;DHT22;37915;53.254;6.598;2023-05-15T17:20:07;11.80;99.90
51884;DHT22;37915;53.254;6.598;2023-05-15T17:22:33;11.80;99.90
51884;DHT22;37915;53.254;6.598;2023-05-15T17:24:59;11.70;99.90
51884;DHT22;37915;53.254;6.598;2023-05-15T17:27:24;11.70;99.90
51884;DHT22;37915;53.254;6.598;2023-05-15T17:29:50;11.70;99.90
51884;DHT22;37915;53.254;6.598;2023-05-15T17:32:16;11.70;99.90
51884;DHT22;37915;53.254;6.598;2023-05-15T17:34:42;11.70;99.90
51884;DHT22;37915;53.254;6.598;2023-05-15T17:37:08;11.70;99.90
51884;DHT22;37915;53.254;6.598;2023-05-15T17:39:34;11.70;99.90
51884;DHT22;37915;53.254;6.598;2023-05-15T17:42:00;11.70;99.90
51884;DHT22;37915;53.254;6.598;2023-05-15T17:44:28;11.70;99.90
51884;DHT22;37915;53.254;6.598;2023-05-15T17:46:57;11.70;99.90
51884;DHT22;37915;53.254;6.598;2023-05-15T17:49:23;11.70;99.90
51884;DHT22;37915;53.254;6.598;2023-05-15T17:51:49;11.60;99.90
51884;DHT22;37915;53.254;6.598;2023-05-15T17:54:15;11.60;99.90
51884;DHT22;37915;53.254;6.598;2023-05-15T17:56:41;11.50;99.90
51884;DHT22;37915;53.254;6.598;2023-05-15T17:59:06;11.50;99.90
51884;DHT22;37915;53.254;6.598;2023-05-15T18:01:32;11.50;99.90
51884;DHT22;37915;53.254;6.598;2023-05-15T18:03:57;11.50;99.90
51884;DHT22;37915;53.254;6.598;2023-05-15T18:06:23;11.50;99.90
51884;DHT22;37915;53.254;6.598;2023-05-15T18:08:49;11.40;99.90
51884;DHT22;37915;53.254;6.598;2023-05-15T18:11:16;11.40;99.90
51884;DHT22;37915;53.254;6.598;2023-05-15T18:13:42;11.30;99.90
51884;DHT22;37915;53.254;6.598;2023-05-15T18:16:08;11.30;99.90
51884;DHT22;37915;53.254;6.598;2023-05-15T18:18:34;11.30;99.90
51884;DHT22;37915;53.254;6.598;2023-05-15T18:21:00;11.20;99.90
51884;DHT22;37915;53.254;6.598;2023-05-15T18:23:26;11.20;99.90
51884;DHT22;37915;53.254;6.598;2023-05-15T18:25:52;11.20;99.90
51884;DHT22;37915;53.254;6.598;2023-05-15T18:28:17;11.20;99.90
51884;DHT22;37915;53.254;6.598;2023-05-15T18:30:46;11.20;99.90
51884;DHT22;37915;53.254;6.598;2023-05-15T18:33:12;11.10;99.90
51884;DHT22;37915;53.254;6.598;2023-05-15T18:35:38;11.10;99.90
51884;DHT22;37915;53.254;6.598;2023-05-15T18:38:04;11.10;99.90
51884;DHT22;37915;53.254;6.598;2023-05-15T18:40:30;11.10;99.90
51884;DHT22;37915;53.254;6.598;2023-05-15T18:42:56;11.10;99.90
51884;DHT22;37915;53.254;6.598;2023-05-15T18:45:23;11.10;99.90
51884;DHT22;37915;53.254;6.598;2023-05-15T18:47:50;11.10;99.90
51884;DHT22;37915;53.254;6.598;2023-05-15T18:50:16;11.10;99.90
51884;DHT22;37915;53.254;6.598;2023-05-15T18:52:42;11.10;99.90
51884;DHT22;37915;53.254;6.598;2023-05-15T18:55:09;11.10;99.90
51884;DHT22;37915;53.254;6.598;2023-05-15T18:57:35;11.10;99.90
51884;DHT22;37915;53.254;6.598;2023-05-15T19:00:02;11.10;99.90
51884;DHT22;37915;53.254;6.598;2023-05-15T19:02:28;11.10;99.90
51884;DHT22;37915;53.254;6.598;2023-05-15T19:04:54;11.00;99.90
51884;DHT22;37915;53.254;6.598;2023-05-15T19:07:20;11.00;99.90
51884;DHT22;37915;53.254;6.598;2023-05-15T19:09:45;10.90;99.90
51884;DHT22;37915;53.254;6.598;2023-05-15T19:12:11;10.90;99.90
51884;DHT22;37915;53.254;6.598;2023-05-15T19:14:37;10.90;99.90
51884;DHT22;37915;53.254;6.598;2023-05-15T19:17:02;10.90;99.90
51884;DHT22;37915;53.254;6.598;2023-05-15T19:19:28;10.90;99.90
51884;DHT22;37915;53.254;6.598;2023-05-15T19:21:54;10.90;99.90
51884;DHT22;37915;53.254;6.598;2023-05-15T19:24:20;10.90;99.90
51884;DHT22;37915;53.254;6.598;2023-05-15T19:26:45;10.80;99.90
51884;DHT22;37915;53.254;6.598;2023-05-15T19:29:11;10.90;99.90
51884;DHT22;37915;53.254;6.598;2023-05-15T19:31:37;10.80;99.90
51884;DHT22;37915;53.254;6.598;2023-05-15T19:34:03;10.80;99.90
51884;DHT22;37915;53.254;6.598;2023-05-15T19:36:29;10.80;99.90
51884;DHT22;37915;53.254;6.598;2023-05-15T19:38:56;10.70;99.90
51884;DHT22;37915;53.254;6.598;2023-05-15T19:41:22;10.60;99.90
51884;DHT22;37915;53.254;6.598;2023-05-15T19:43:48;10.50;99.90
51884;DHT22;37915;53.254;6.598;2023-05-15T19:46:18;10.50;99.90
51884;DHT22;37915;53.254;6.598;2023-05-15T19:48:44;10.50;99.90
51884;DHT22;37915;53.254;6.598;2023-05-15T19:51:10;10.50;99.90
51884;DHT22;37915;53.254;6.598;2023-05-15T19:53:36;10.40;99.90
51884;DHT22;37915;53.254;6.598;2023-05-15T19:56:04;10.50;99.90
51884;DHT22;37915;53.254;6.598;2023-05-15T19:58:31;10.50;99.90
51884;DHT22;37915;53.254;6.598;2023-05-15T20:00:56;10.40;99.90
51884;DHT22;37915;53.254;6.598;2023-05-15T20:03:23;10.40;99.90
51884;DHT22;37915;53.254;6.598;2023-05-15T20:05:50;10.30;99.90
51884;DHT22;37915;53.254;6.598;2023-05-15T20:08:16;10.30;99.90
51884;DHT22;37915;53.254;6.598;2023-05-15T20:10:42;10.30;99.90
51884;DHT22;37915;53.254;6.598;2023-05-15T20:13:08;10.20;99.90
51884;DHT22;37915;53.254;6.598;2023-05-15T20:15:35;10.10;99.90
51884;DHT22;37915;53.254;6.598;2023-05-15T20:18:05;10.10;99.90
51884;DHT22;37915;53.254;6.598;2023-05-15T20:20:31;10.00;99.90
51884;DHT22;37915;53.254;6.598;2023-05-15T20:22:56;10.00;99.90
51884;DHT22;37915;53.254;6.598;2023-05-15T20:25:22;9.90;99.90
51884;DHT22;37915;53.254;6.598;2023-05-15T20:27:48;9.90;99.90
51884;DHT22;37915;53.254;6.598;2023-05-15T20:30:14;9.80;99.90
51884;DHT22;37915;53.254;6.598;2023-05-15T20:32:40;9.80;99.90
51884;DHT22;37915;53.254;6.598;2023-05-15T20:35:06;9.70;99.90
51884;DHT22;37915;53.254;6.598;2023-05-15T20:37:32;9.70;99.90
51884;DHT22;37915;53.254;6.598;2023-05-15T20:39:58;9.70;99.90
51884;DHT22;37915;53.254;6.598;2023-05-15T20:42:26;9.70;99.90
51884;DHT22;37915;53.254;6.598;2023-05-15T20:44:52;9.60;99.90
51884;DHT22;37915;53.254;6.598;2023-05-15T20:47:18;9.60;99.90
51884;DHT22;37915;53.254;6.598;2023-05-15T20:49:44;9.60;99.90
51884;DHT22;37915;53.254;6.598;2023-05-15T20:52:10;9.60;99.90
51884;DHT22;37915;53.254;6.598;2023-05-15T20:54:36;9.50;99.90
51884;DHT22;37915;53.254;6.598;2023-05-15T20:57:02;9.50;99.90
51884;DHT22;37915;53.254;6.598;2023-05-15T20:59:27;9.50;99.90
51884;DHT22;37915;53.254;6.598;2023-05-15T21:01:53;9.50;99.90
51884;DHT22;37915;53.254;6.598;2023-05-15T21:04:19;9.50;99.90
51884;DHT22;37915;53.254;6.598;2023-05-15T21:06:44;9.40;99.90
51884;DHT22;37915;53.254;6.598;2023-05-15T21:09:12;9.40;99.90
51884;DHT22;37915;53.254;6.598;2023-05-15T21:11:37;9.40;99.90
51884;DHT22;37915;53.254;6.598;2023-05-15T21:14:04;9.40;99.90
51884;DHT22;37915;53.254;6.598;2023-05-15T21:16:30;9.40;99.90
51884;DHT22;37915;53.254;6.598;2023-05-15T21:18:55;9.40;99.90
51884;DHT22;37915;53.254;6.598;2023-05-15T21:21:21;9.40;99.90
51884;DHT22;37915;53.254;6.598;2023-05-15T21:23:47;9.40;99.90
51884;DHT22;37915;53.254;6.598;2023-05-15T21:26:12;9.40;99.90
51884;DHT22;37915;53.254;6.598;2023-05-15T21:28:38;9.40;99.90
51884;DHT22;37915;53.254;6.598;2023-05-15T21:31:08;9.40;99.90
51884;DHT22;37915;53.254;6.598;2023-05-15T21:33:34;9.40;99.90
51884;DHT22;37915;53.254;6.598;2023-05-15T21:36:01;9.40;99.90
51884;DHT22;37915;53.254;6.598;2023-05-15T21:38:28;9.40;99.90
51884;DHT22;37915;53.254;6.598;2023-05-15T21:40:53;9.40;99.90
51884;DHT22;37915;53.254;6.598;2023-05-15T21:43:19;9.40;99.90
51884;DHT22;37915;53.254;6.598;2023-05-15T21:45:45;9.40;99.90
51884;DHT22;37915;53.254;6.598;2023-05-15T21:48:10;9.40;99.90
51884;DHT22;37915;53.254;6.598;2023-05-15T21:50:36;9.40;99.90
51884;DHT22;37915;53.254;6.598;2023-05-15T21:53:02;9.40;99.90
51884;DHT22;37915;53.254;6.598;2023-05-15T21:55:28;9.40;99.90
51884;DHT22;37915;53.254;6.598;2023-05-15T21:57:54;9.50;99.90
51884;DHT22;37915;53.254;6.598;2023-05-15T22:00:20;9.50;99.90
51884;DHT22;37915;53.254;6.598;2023-05-15T22:02:45;9.50;99.90
51884;DHT22;37915;53.254;6.598;2023-05-15T22:05:11;9.50;99.90
51884;DHT22;37915;53.254;6.598;2023-05-15T22:07:37;9.50;99.90
51884;DHT22;37915;53.254;6.598;2023-05-15T22:10:03;9.40;99.90
51884;DHT22;37915;53.254;6.598;2023-05-15T22:12:29;9.40;99.90
51884;DHT22;37915;53.254;6.598;2023-05-15T22:14:57;9.40;99.90
51884;DHT22;37915;53.254;6.598;2023-05-15T22:17:23;9.40;99.90
51884;DHT22;37915;53.254;6.598;2023-05-15T22:19:52;9.40;99.90
51884;DHT22;37915;53.254;6.598;2023-05-15T22:22:18;9.40;99.90
51884;DHT22;37915;53.254;6.598;2023-05-15T22:24:45;9.40;99.90
51884;DHT22;37915;53.254;6.598;2023-05-15T22:27:10;9.40;99.90
51884;DHT22;37915;53.254;6.598;2023-05-15T22:29:36;9.40;99.90
51884;DHT22;37915;53.254;6.598;2023-05-15T22:32:02;9.40;99.90
51884;DHT22;37915;53.254;6.598;2023-05-15T22:34:27;9.40;99.90
51884;DHT22;37915;53.254;6.598;2023-05-15T22:36:57;9.40;99.90
51884;DHT22;37915;53.254;6.598;2023-05-15T22:39:22;9.40;99.90
51884;DHT22;37915;53.254;6.598;2023-05-15T22:41:48;9.40;99.90
51884;DHT22;37915;53.254;6.598;2023-05-15T22:44:14;9.40;99.90
51884;DHT22;37915;53.254;6.598;2023-05-15T22:46:40;9.40;99.90
51884;DHT22;37915;53.254;6.598;2023-05-15T22:49:06;9.40;99.90
51884;DHT22;37915;53.254;6.598;2023-05-15T22:51:34;9.40;99.90
51884;DHT22;37915;53.254;6.598;2023-05-15T22:53:59;9.40;99.90
51884;DHT22;37915;53.254;6.598;2023-05-15T22:56:25;9.40;99.90
51884;DHT22;37915;53.254;6.598;2023-05-15T22:58:51;9.40;99.90
51884;DHT22;37915;53.254;6.598;2023-05-15T23:01:17;9.40;99.90
51884;DHT22;37915;53.254;6.598;2023-05-15T23:03:43;9.30;99.90
51884;DHT22;37915;53.254;6.598;2023-05-15T23:06:09;9.30;99.90
51884;DHT22;37915;53.254;6.598;2023-05-15T23:08:35;9.30;99.90
51884;DHT22;37915;53.254;6.598;2023-05-15T23:11:00;9.30;99.90
51884;DHT22;37915;53.254;6.598;2023-05-15T23:13:26;9.30;99.90
51884;DHT22;37915;53.254;6.598;2023-05-15T23:15:52;9.30;99.90
51884;DHT22;37915;53.254;6.598;2023-05-15T23:18:18;9.30;99.90
51884;DHT22;37915;53.254;6.598;2023-05-15T23:20:43;9.20;99.90
51884;DHT22;37915;53.254;6.598;2023-05-15T23:23:10;9.20;99.90
51884;DHT22;37915;53.254;6.598;2023-05-15T23:25:36;9.20;99.90
51884;DHT22;37915;53.254;6.598;2023-05-15T23:28:02;9.20;99.90
51884;DHT22;37915;53.254;6.598;2023-05-15T23:30:28;9.20;99.90
51884;DHT22;37915;53.254;6.598;2023-05-15T23:32:54;9.10;99.90
51884;DHT22;37915;53.254;6.598;2023-05-15T23:35:21;9.10;99.90
51884;DHT22;37915;53.254;6.598;2023-05-15T23:37:47;9.10;99.90
51884;DHT22;37915;53.254;6.598;2023-05-15T23:40:12;9.10;99.90
51884;DHT22;37915;53.254;6.598;2023-05-15T23:42:38;9.00;99.90
51884;DHT22;37915;53.254;6.598;2023-05-15T23:45:04;9.00;99.90
51884;DHT22;37915;53.254;6.598;2023-05-15T23:47:30;9.00;99.90
51884;DHT22;37915;53.254;6.598;2023-05-15T23:49:56;8.90;99.90
51884;DHT22;37915;53.254;6.598;2023-05-15T23:52:21;8.90;99.90
51884;DHT22;37915;53.254;6.598;2023-05-15T23:54:47;8.90;99.90
51884;DHT22;37915;53.254;6.598;2023-05-15T23:57:13;8.90;99.90
51884;DHT22;37915;53.254;6.598;2023-05-15T23:59:38;8.90;99.90
